sensor_id;sensor_type;location;lat;lon;timestamp;temperature;humidity
11132;DHT22;5620;53.570;9.718;2023-05-10T00:01:26;15.90;1.00
11132;DHT22;5620;53.570;9.718;2023-05-10T00:03:53;15.80;1.00
11132;DHT22;5620;53.570;9.718;2023-05-10T00:06:20;15.80;1.00
11132;DHT22;5620;53.570;9.718;2023-05-10T00:08:49;15.60;1.00
11132;DHT22;5620;53.570;9.718;2023-05-10T00:11:15;15.50;1.00
11132;DHT22;5620;53.570;9.718;2023-05-10T00:13:43;15.40;1.00
11132;DHT22;5620;53.570;9.718;2023-05-10T00:16:08;15.20;1.00
11132;DHT22;5620;53.570;9.718;2023-05-10T00:18:35;15.10;1.20
11132;DHT22;5620;53.570;9.718;2023-05-10T00:21:02;15.00;2.00
11132;DHT22;5620;53.570;9.718;2023-05-10T00:23:30;14.80;1.70
11132;DHT22;5620;53.570;9.718;2023-05-10T00:25:57;14.70;2.80
11132;DHT22;5620;53.570;9.718;2023-05-10T00:28:23;14.60;3.40
11132;DHT22;5620;53.570;9.718;2023-05-10T00:30:50;14.60;3.60
11132;DHT22;5620;53.570;9.718;2023-05-10T00:33:16;14.50;3.00
11132;DHT22;5620;53.570;9.718;2023-05-10T00:35:42;14.40;3.50
11132;DHT22;5620;53.570;9.718;2023-05-10T00:38:13;14.40;3.40
11132;DHT22;5620;53.570;9.718;2023-05-10T00:40:42;14.30;4.20
11132;DHT22;5620;53.570;9.718;2023-05-10T00:43:08;14.20;5.10
11132;DHT22;5620;53.570;9.718;2023-05-10T00:45:37;14.20;5.90
11132;DHT22;5620;53.570;9.718;2023-05-10T00:48:05;14.10;5.20
11132;DHT22;5620;53.570;9.718;2023-05-10T00:50:31;14.10;4.80
11132;DHT22;5620;53.570;9.718;2023-05-10T00:52:59;14.00;5.40
11132;DHT22;5620;53.570;9.718;2023-05-10T00:55:27;14.00;5.50
11132;DHT22;5620;53.570;9.718;2023-05-10T00:57:59;14.00;5.70
11132;DHT22;5620;53.570;9.718;2023-05-10T01:00:24;13.90;5.50
11132;DHT22;5620;53.570;9.718;2023-05-10T01:02:52;13.90;5.60
11132;DHT22;5620;53.570;9.718;2023-05-10T01:05:18;13.90;5.30
11132;DHT22;5620;53.570;9.718;2023-05-10T01:07:44;13.80;5.70
11132;DHT22;5620;53.570;9.718;2023-05-10T01:10:11;13.80;5.40
11132;DHT22;5620;53.570;9.718;2023-05-10T01:12:41;13.80;5.30
11132;DHT22;5620;53.570;9.718;2023-05-10T01:15:09;13.70;5.90
11132;DHT22;5620;53.570;9.718;2023-05-10T01:17:38;13.70;5.60
11132;DHT22;5620;53.570;9.718;2023-05-10T01:20:05;13.70;4.90
11132;DHT22;5620;53.570;9.718;2023-05-10T01:31:08;13.60;5.40
11132;DHT22;5620;53.570;9.718;2023-05-10T01:33:54;13.60;5.30
11132;DHT22;5620;53.570;9.718;2023-05-10T01:36:45;13.50;4.70
11132;DHT22;5620;53.570;9.718;2023-05-10T01:42:03;13.50;4.70
11132;DHT22;5620;53.570;9.718;2023-05-10T01:44:42;13.50;4.60
11132;DHT22;5620;53.570;9.718;2023-05-10T01:47:14;13.50;3.90
11132;DHT22;5620;53.570;9.718;2023-05-10T01:49:47;13.50;4.80
11132;DHT22;5620;53.570;9.718;2023-05-10T01:52:17;13.50;4.50
11132;DHT22;5620;53.570;9.718;2023-05-10T01:54:49;13.50;4.40
11132;DHT22;5620;53.570;9.718;2023-05-10T01:57:19;13.50;4.00
11132;DHT22;5620;53.570;9.718;2023-05-10T01:59:46;13.50;4.50
11132;DHT22;5620;53.570;9.718;2023-05-10T02:02:17;13.50;3.80
11132;DHT22;5620;53.570;9.718;2023-05-10T02:04:46;13.50;3.70
11132;DHT22;5620;53.570;9.718;2023-05-10T02:07:15;13.50;3.30
11132;DHT22;5620;53.570;9.718;2023-05-10T02:09:44;13.50;4.40
11132;DHT22;5620;53.570;9.718;2023-05-10T02:12:12;13.50;3.50
11132;DHT22;5620;53.570;9.718;2023-05-10T02:14:39;13.60;3.00
11132;DHT22;5620;53.570;9.718;2023-05-10T02:17:07;13.60;2.80
11132;DHT22;5620;53.570;9.718;2023-05-10T02:19:35;13.60;3.10
11132;DHT22;5620;53.570;9.718;2023-05-10T02:22:02;13.60;2.50
11132;DHT22;5620;53.570;9.718;2023-05-10T02:24:32;13.60;2.70
11132;DHT22;5620;53.570;9.718;2023-05-10T02:27:03;13.60;2.30
11132;DHT22;5620;53.570;9.718;2023-05-10T02:29:31;13.60;2.30
11132;DHT22;5620;53.570;9.718;2023-05-10T02:32:00;13.60;2.60
11132;DHT22;5620;53.570;9.718;2023-05-10T02:34:29;13.60;2.00
11132;DHT22;5620;53.570;9.718;2023-05-10T02:36:55;13.60;2.20
11132;DHT22;5620;53.570;9.718;2023-05-10T02:39:23;13.50;1.80
11132;DHT22;5620;53.570;9.718;2023-05-10T02:41:53;13.50;1.50
11132;DHT22;5620;53.570;9.718;2023-05-10T02:44:20;13.50;2.10
11132;DHT22;5620;53.570;9.718;2023-05-10T02:46:47;13.50;2.20
11132;DHT22;5620;53.570;9.718;2023-05-10T02:49:13;13.50;1.70
11132;DHT22;5620;53.570;9.718;2023-05-10T02:51:56;13.50;1.90
11132;DHT22;5620;53.570;9.718;2023-05-10T02:54:31;13.50;1.90
11132;DHT22;5620;53.570;9.718;2023-05-10T02:57:00;13.50;1.30
11132;DHT22;5620;53.570;9.718;2023-05-10T02:59:26;13.50;1.30
11132;DHT22;5620;53.570;9.718;2023-05-10T03:01:54;13.50;1.00
11132;DHT22;5620;53.570;9.718;2023-05-10T03:04:21;13.50;1.70
11132;DHT22;5620;53.570;9.718;2023-05-10T03:06:48;13.50;1.00
11132;DHT22;5620;53.570;9.718;2023-05-10T03:09:15;13.50;1.20
11132;DHT22;5620;53.570;9.718;2023-05-10T03:12:07;13.40;1.20
11132;DHT22;5620;53.570;9.718;2023-05-10T03:15:00;13.40;1.00
11132;DHT22;5620;53.570;9.718;2023-05-10T03:17:54;13.50;1.00
11132;DHT22;5620;53.570;9.718;2023-05-10T03:20:29;13.40;1.00
11132;DHT22;5620;53.570;9.718;2023-05-10T03:23:12;13.40;1.30
11132;DHT22;5620;53.570;9.718;2023-05-10T03:25:40;13.40;1.40
11132;DHT22;5620;53.570;9.718;2023-05-10T03:28:06;13.40;1.00
11132;DHT22;5620;53.570;9.718;2023-05-10T03:30:33;13.50;1.00
11132;DHT22;5620;53.570;9.718;2023-05-10T03:33:05;13.50;1.00
11132;DHT22;5620;53.570;9.718;2023-05-10T03:35:34;13.50;1.00
11132;DHT22;5620;53.570;9.718;2023-05-10T03:38:01;13.50;12.20
11132;DHT22;5620;53.570;9.718;2023-05-10T03:40:27;13.50;1.00
11132;DHT22;5620;53.570;9.718;2023-05-10T03:42:55;13.50;1.00
11132;DHT22;5620;53.570;9.718;2023-05-10T03:45:22;13.50;1.00
11132;DHT22;5620;53.570;9.718;2023-05-10T03:47:47;13.50;1.00
11132;DHT22;5620;53.570;9.718;2023-05-10T03:50:14;13.50;1.00
11132;DHT22;5620;53.570;9.718;2023-05-10T03:52:42;13.50;1.00
11132;DHT22;5620;53.570;9.718;2023-05-10T03:55:09;13.50;1.00
11132;DHT22;5620;53.570;9.718;2023-05-10T03:57:37;13.50;1.00
11132;DHT22;5620;53.570;9.718;2023-05-10T04:00:04;13.50;1.00
11132;DHT22;5620;53.570;9.718;2023-05-10T04:02:30;13.50;1.00
11132;DHT22;5620;53.570;9.718;2023-05-10T04:04:56;13.50;1.00
11132;DHT22;5620;53.570;9.718;2023-05-10T04:07:22;13.50;1.00
11132;DHT22;5620;53.570;9.718;2023-05-10T04:09:49;13.50;1.00
11132;DHT22;5620;53.570;9.718;2023-05-10T04:12:17;13.60;1.00
11132;DHT22;5620;53.570;9.718;2023-05-10T04:14:43;13.60;1.00
11132;DHT22;5620;53.570;9.718;2023-05-10T04:17:11;13.70;1.00
11132;DHT22;5620;53.570;9.718;2023-05-10T04:19:37;13.70;1.00
11132;DHT22;5620;53.570;9.718;2023-05-10T04:22:03;13.80;1.00
11132;DHT22;5620;53.570;9.718;2023-05-10T04:24:30;13.90;1.00
11132;DHT22;5620;53.570;9.718;2023-05-10T04:26:56;14.00;1.00
11132;DHT22;5620;53.570;9.718;2023-05-10T04:29:21;14.00;1.00
11132;DHT22;5620;53.570;9.718;2023-05-10T04:31:47;14.10;1.00
11132;DHT22;5620;53.570;9.718;2023-05-10T04:34:14;14.20;1.00
11132;DHT22;5620;53.570;9.718;2023-05-10T04:36:42;14.30;1.00
11132;DHT22;5620;53.570;9.718;2023-05-10T04:39:10;14.40;1.00
11132;DHT22;5620;53.570;9.718;2023-05-10T04:41:37;14.50;1.00
11132;DHT22;5620;53.570;9.718;2023-05-10T04:44:04;14.60;1.00
11132;DHT22;5620;53.570;9.718;2023-05-10T04:46:30;14.70;1.00
11132;DHT22;5620;53.570;9.718;2023-05-10T04:48:57;14.80;1.00
11132;DHT22;5620;53.570;9.718;2023-05-10T04:51:22;14.80;1.00
11132;DHT22;5620;53.570;9.718;2023-05-10T04:53:48;14.80;1.00
11132;DHT22;5620;53.570;9.718;2023-05-10T04:56:14;14.80;1.00
11132;DHT22;5620;53.570;9.718;2023-05-10T04:58:41;14.80;1.00
11132;DHT22;5620;53.570;9.718;2023-05-10T05:01:09;14.80;1.00
11132;DHT22;5620;53.570;9.718;2023-05-10T05:03:38;14.90;1.00
11132;DHT22;5620;53.570;9.718;2023-05-10T05:06:05;14.80;2.10
11132;DHT22;5620;53.570;9.718;2023-05-10T05:08:32;14.90;1.00
11132;DHT22;5620;53.570;9.718;2023-05-10T05:10:58;14.90;1.00
11132;DHT22;5620;53.570;9.718;2023-05-10T05:13:24;15.00;1.00
11132;DHT22;5620;53.570;9.718;2023-05-10T05:15:50;15.10;1.00
11132;DHT22;5620;53.570;9.718;2023-05-10T05:18:16;15.20;1.00
11132;DHT22;5620;53.570;9.718;2023-05-10T05:20:45;15.30;1.00
11132;DHT22;5620;53.570;9.718;2023-05-10T05:23:11;15.30;1.00
11132;DHT22;5620;53.570;9.718;2023-05-10T05:25:38;15.40;1.00
11132;DHT22;5620;53.570;9.718;2023-05-10T05:28:04;15.50;1.00
11132;DHT22;5620;53.570;9.718;2023-05-10T05:30:29;15.60;1.00
11132;DHT22;5620;53.570;9.718;2023-05-10T05:32:55;15.70;1.00
11132;DHT22;5620;53.570;9.718;2023-05-10T05:35:21;15.80;1.00
11132;DHT22;5620;53.570;9.718;2023-05-10T05:37:49;15.90;1.00
11132;DHT22;5620;53.570;9.718;2023-05-10T05:40:17;16.00;1.00
11132;DHT22;5620;53.570;9.718;2023-05-10T05:42:45;16.20;1.00
11132;DHT22;5620;53.570;9.718;2023-05-10T05:45:15;16.20;1.00
11132;DHT22;5620;53.570;9.718;2023-05-10T05:47:44;16.30;1.00
11132;DHT22;5620;53.570;9.718;2023-05-10T05:50:12;16.40;1.00
11132;DHT22;5620;53.570;9.718;2023-05-10T05:52:39;16.40;1.00
11132;DHT22;5620;53.570;9.718;2023-05-10T05:55:05;16.60;1.00
11132;DHT22;5620;53.570;9.718;2023-05-10T05:57:31;16.70;1.00
11132;DHT22;5620;53.570;9.718;2023-05-10T05:59:58;16.80;1.00
11132;DHT22;5620;53.570;9.718;2023-05-10T06:02:23;16.70;1.00
11132;DHT22;5620;53.570;9.718;2023-05-10T06:04:49;16.70;1.00
11132;DHT22;5620;53.570;9.718;2023-05-10T06:07:14;16.80;1.00
11132;DHT22;5620;53.570;9.718;2023-05-10T06:09:42;16.90;1.00
11132;DHT22;5620;53.570;9.718;2023-05-10T06:12:09;17.10;1.00
11132;DHT22;5620;53.570;9.718;2023-05-10T06:14:35;17.10;1.00
11132;DHT22;5620;53.570;9.718;2023-05-10T06:17:00;17.30;1.00
11132;DHT22;5620;53.570;9.718;2023-05-10T06:19:30;17.40;1.00
11132;DHT22;5620;53.570;9.718;2023-05-10T06:21:57;17.60;1.00
11132;DHT22;5620;53.570;9.718;2023-05-10T06:24:22;17.80;1.00
11132;DHT22;5620;53.570;9.718;2023-05-10T06:26:48;17.90;1.00
11132;DHT22;5620;53.570;9.718;2023-05-10T06:29:15;18.00;1.00
11132;DHT22;5620;53.570;9.718;2023-05-10T06:31:43;18.10;1.00
11132;DHT22;5620;53.570;9.718;2023-05-10T06:34:09;18.30;1.00
11132;DHT22;5620;53.570;9.718;2023-05-10T06:36:36;18.30;1.00
11132;DHT22;5620;53.570;9.718;2023-05-10T06:39:02;18.50;1.00
11132;DHT22;5620;53.570;9.718;2023-05-10T06:41:27;18.60;1.00
11132;DHT22;5620;53.570;9.718;2023-05-10T06:43:54;18.70;1.00
11132;DHT22;5620;53.570;9.718;2023-05-10T06:46:21;18.80;1.00
11132;DHT22;5620;53.570;9.718;2023-05-10T06:48:49;18.90;1.00
11132;DHT22;5620;53.570;9.718;2023-05-10T06:51:16;18.90;1.00
11132;DHT22;5620;53.570;9.718;2023-05-10T06:53:42;19.10;1.00
11132;DHT22;5620;53.570;9.718;2023-05-10T06:56:08;19.30;1.00
11132;DHT22;5620;53.570;9.718;2023-05-10T06:58:34;19.50;1.00
11132;DHT22;5620;53.570;9.718;2023-05-10T07:01:04;19.60;1.00
11132;DHT22;5620;53.570;9.718;2023-05-10T07:03:33;19.60;1.00
11132;DHT22;5620;53.570;9.718;2023-05-10T07:06:21;19.80;1.00
11132;DHT22;5620;53.570;9.718;2023-05-10T07:08:47;19.90;1.00
11132;DHT22;5620;53.570;9.718;2023-05-10T07:11:13;19.90;1.00
11132;DHT22;5620;53.570;9.718;2023-05-10T07:13:40;20.00;1.00
11132;DHT22;5620;53.570;9.718;2023-05-10T07:16:05;20.10;1.00
11132;DHT22;5620;53.570;9.718;2023-05-10T07:18:32;20.20;1.00
11132;DHT22;5620;53.570;9.718;2023-05-10T07:20:59;20.30;1.00
11132;DHT22;5620;53.570;9.718;2023-05-10T07:23:27;20.40;1.00
11132;DHT22;5620;53.570;9.718;2023-05-10T07:25:54;20.50;1.00
11132;DHT22;5620;53.570;9.718;2023-05-10T07:28:23;20.60;1.00
11132;DHT22;5620;53.570;9.718;2023-05-10T07:30:50;20.60;1.00
11132;DHT22;5620;53.570;9.718;2023-05-10T07:33:17;20.60;1.00
11132;DHT22;5620;53.570;9.718;2023-05-10T07:35:43;20.70;1.00
11132;DHT22;5620;53.570;9.718;2023-05-10T07:38:09;20.90;1.00
11132;DHT22;5620;53.570;9.718;2023-05-10T07:40:35;21.00;1.00
11132;DHT22;5620;53.570;9.718;2023-05-10T07:43:00;21.00;1.00
11132;DHT22;5620;53.570;9.718;2023-05-10T07:45:28;21.00;1.00
11132;DHT22;5620;53.570;9.718;2023-05-10T07:47:54;20.90;1.00
11132;DHT22;5620;53.570;9.718;2023-05-10T07:50:21;20.70;1.00
11132;DHT22;5620;53.570;9.718;2023-05-10T07:52:48;20.60;1.00
11132;DHT22;5620;53.570;9.718;2023-05-10T07:55:14;20.50;1.00
11132;DHT22;5620;53.570;9.718;2023-05-10T07:57:41;20.50;1.00
11132;DHT22;5620;53.570;9.718;2023-05-10T08:00:07;20.50;1.00
11132;DHT22;5620;53.570;9.718;2023-05-10T08:02:35;20.60;1.00
11132;DHT22;5620;53.570;9.718;2023-05-10T08:05:01;20.60;1.00
11132;DHT22;5620;53.570;9.718;2023-05-10T08:07:27;20.60;1.00
11132;DHT22;5620;53.570;9.718;2023-05-10T08:09:54;20.60;1.00
11132;DHT22;5620;53.570;9.718;2023-05-10T08:12:20;20.50;1.00
11132;DHT22;5620;53.570;9.718;2023-05-10T08:14:47;20.10;1.00
11132;DHT22;5620;53.570;9.718;2023-05-10T08:17:12;19.60;1.00
11132;DHT22;5620;53.570;9.718;2023-05-10T08:19:40;19.10;1.00
11132;DHT22;5620;53.570;9.718;2023-05-10T08:22:08;18.70;1.00
11132;DHT22;5620;53.570;9.718;2023-05-10T08:24:33;18.50;1.00
11132;DHT22;5620;53.570;9.718;2023-05-10T08:27:01;18.50;1.00
11132;DHT22;5620;53.570;9.718;2023-05-10T08:29:28;18.50;1.00
11132;DHT22;5620;53.570;9.718;2023-05-10T08:31:53;18.60;1.00
11132;DHT22;5620;53.570;9.718;2023-05-10T08:34:20;18.60;1.00
11132;DHT22;5620;53.570;9.718;2023-05-10T08:36:47;18.90;1.00
11132;DHT22;5620;53.570;9.718;2023-05-10T08:39:12;19.20;1.00
11132;DHT22;5620;53.570;9.718;2023-05-10T08:41:41;19.60;1.00
11132;DHT22;5620;53.570;9.718;2023-05-10T08:44:12;20.00;1.00
11132;DHT22;5620;53.570;9.718;2023-05-10T08:46:41;20.30;1.00
11132;DHT22;5620;53.570;9.718;2023-05-10T08:49:09;20.10;1.00
11132;DHT22;5620;53.570;9.718;2023-05-10T08:51:43;19.90;1.00
11132;DHT22;5620;53.570;9.718;2023-05-10T08:54:10;19.90;1.00
11132;DHT22;5620;53.570;9.718;2023-05-10T08:56:38;19.90;1.00
11132;DHT22;5620;53.570;9.718;2023-05-10T08:59:05;19.80;1.00
11132;DHT22;5620;53.570;9.718;2023-05-10T09:01:36;20.00;1.00
11132;DHT22;5620;53.570;9.718;2023-05-10T09:04:02;19.90;1.00
11132;DHT22;5620;53.570;9.718;2023-05-10T09:06:29;19.90;1.00
11132;DHT22;5620;53.570;9.718;2023-05-10T09:08:57;19.90;1.00
11132;DHT22;5620;53.570;9.718;2023-05-10T09:11:23;19.70;1.00
11132;DHT22;5620;53.570;9.718;2023-05-10T09:13:50;19.40;1.00
11132;DHT22;5620;53.570;9.718;2023-05-10T09:16:18;19.00;1.00
11132;DHT22;5620;53.570;9.718;2023-05-10T09:18:45;18.50;1.00
11132;DHT22;5620;53.570;9.718;2023-05-10T09:21:12;18.20;1.00
11132;DHT22;5620;53.570;9.718;2023-05-10T09:23:43;18.10;1.00
11132;DHT22;5620;53.570;9.718;2023-05-10T09:26:09;18.00;1.00
11132;DHT22;5620;53.570;9.718;2023-05-10T09:31:17;17.60;1.00
11132;DHT22;5620;53.570;9.718;2023-05-10T09:33:47;17.20;1.00
11132;DHT22;5620;53.570;9.718;2023-05-10T09:36:13;16.90;1.00
11132;DHT22;5620;53.570;9.718;2023-05-10T09:38:50;16.80;1.00
11132;DHT22;5620;53.570;9.718;2023-05-10T09:41:23;16.70;1.00
11132;DHT22;5620;53.570;9.718;2023-05-10T09:43:49;16.80;1.00
11132;DHT22;5620;53.570;9.718;2023-05-10T09:46:17;16.80;1.00
11132;DHT22;5620;53.570;9.718;2023-05-10T09:48:48;17.00;1.00
11132;DHT22;5620;53.570;9.718;2023-05-10T09:51:32;16.90;1.00
11132;DHT22;5620;53.570;9.718;2023-05-10T09:54:16;16.80;1.00
11132;DHT22;5620;53.570;9.718;2023-05-10T09:56:42;16.70;1.00
11132;DHT22;5620;53.570;9.718;2023-05-10T09:59:11;16.80;1.00
11132;DHT22;5620;53.570;9.718;2023-05-10T10:01:39;16.70;1.00
11132;DHT22;5620;53.570;9.718;2023-05-10T10:04:09;16.30;1.00
11132;DHT22;5620;53.570;9.718;2023-05-10T10:06:39;16.10;1.00
11132;DHT22;5620;53.570;9.718;2023-05-10T10:09:07;15.90;1.00
11132;DHT22;5620;53.570;9.718;2023-05-10T10:11:35;15.70;1.00
11132;DHT22;5620;53.570;9.718;2023-05-10T10:14:02;15.60;1.00
11132;DHT22;5620;53.570;9.718;2023-05-10T10:16:31;15.70;1.00
11132;DHT22;5620;53.570;9.718;2023-05-10T10:18:57;15.70;1.00
11132;DHT22;5620;53.570;9.718;2023-05-10T10:21:23;15.70;1.00
11132;DHT22;5620;53.570;9.718;2023-05-10T10:23:51;15.80;1.00
11132;DHT22;5620;53.570;9.718;2023-05-10T10:26:23;16.00;1.00
11132;DHT22;5620;53.570;9.718;2023-05-10T10:32:12;16.40;1.00
11132;DHT22;5620;53.570;9.718;2023-05-10T10:34:35;16.50;1.00
11132;DHT22;5620;53.570;9.718;2023-05-10T10:37:06;16.60;1.00
11132;DHT22;5620;53.570;9.718;2023-05-10T10:39:31;16.70;1.00
11132;DHT22;5620;53.570;9.718;2023-05-10T10:42:01;16.80;1.00
11132;DHT22;5620;53.570;9.718;2023-05-10T10:47:20;17.00;1.00
11132;DHT22;5620;53.570;9.718;2023-05-10T10:50:03;17.10;1.00
11132;DHT22;5620;53.570;9.718;2023-05-10T10:55:07;17.20;1.00
11132;DHT22;5620;53.570;9.718;2023-05-10T10:57:55;17.10;1.00
11132;DHT22;5620;53.570;9.718;2023-05-10T11:03:14;17.10;8.90
11132;DHT22;5620;53.570;9.718;2023-05-10T11:08:33;17.00;16.80
11132;DHT22;5620;53.570;9.718;2023-05-10T11:11:04;16.80;25.20
11132;DHT22;5620;53.570;9.718;2023-05-10T11:13:50;16.60;34.10
11132;DHT22;5620;53.570;9.718;2023-05-10T11:16:24;16.60;48.50
11132;DHT22;5620;53.570;9.718;2023-05-10T11:19:09;16.70;57.40
11132;DHT22;5620;53.570;9.718;2023-05-10T11:22:27;16.90;67.20
11132;DHT22;5620;53.570;9.718;2023-05-10T11:24:34;17.10;74.60
11132;DHT22;5620;53.570;9.718;2023-05-10T11:27:00;17.30;81.40
11132;DHT22;5620;53.570;9.718;2023-05-10T11:29:26;17.40;88.70
11132;DHT22;5620;53.570;9.718;2023-05-10T11:31:51;17.60;93.20
11132;DHT22;5620;53.570;9.718;2023-05-10T11:34:32;17.90;97.30
11132;DHT22;5620;53.570;9.718;2023-05-10T11:36:59;18.10;99.90
11132;DHT22;5620;53.570;9.718;2023-05-10T11:39:32;18.40;99.90
11132;DHT22;5620;53.570;9.718;2023-05-10T11:41:59;18.80;99.90
11132;DHT22;5620;53.570;9.718;2023-05-10T11:44:35;19.10;99.90
11132;DHT22;5620;53.570;9.718;2023-05-10T11:47:01;19.20;99.90
11132;DHT22;5620;53.570;9.718;2023-05-10T11:49:26;19.30;99.90
11132;DHT22;5620;53.570;9.718;2023-05-10T11:52:03;19.40;99.90
11132;DHT22;5620;53.570;9.718;2023-05-10T11:54:30;19.40;99.90
11132;DHT22;5620;53.570;9.718;2023-05-10T11:56:55;19.50;99.90
11132;DHT22;5620;53.570;9.718;2023-05-10T11:59:22;19.70;99.90
11132;DHT22;5620;53.570;9.718;2023-05-10T12:01:49;20.00;99.90
11132;DHT22;5620;53.570;9.718;2023-05-10T12:04:17;20.40;99.90
11132;DHT22;5620;53.570;9.718;2023-05-10T12:06:43;20.70;98.60
11132;DHT22;5620;53.570;9.718;2023-05-10T12:09:12;20.80;95.70
11132;DHT22;5620;53.570;9.718;2023-05-10T12:11:39;20.90;94.10
11132;DHT22;5620;53.570;9.718;2023-05-10T12:14:07;21.20;92.10
11132;DHT22;5620;53.570;9.718;2023-05-10T12:16:38;21.40;88.90
11132;DHT22;5620;53.570;9.718;2023-05-10T12:19:05;21.70;83.70
11132;DHT22;5620;53.570;9.718;2023-05-10T12:21:30;21.80;78.60
11132;DHT22;5620;53.570;9.718;2023-05-10T12:24:01;21.90;73.90
11132;DHT22;5620;53.570;9.718;2023-05-10T12:26:29;22.00;70.10
11132;DHT22;5620;53.570;9.718;2023-05-10T12:29:01;22.20;66.00
11132;DHT22;5620;53.570;9.718;2023-05-10T12:31:59;22.30;61.40
11132;DHT22;5620;53.570;9.718;2023-05-10T12:37:01;22.70;50.00
11132;DHT22;5620;53.570;9.718;2023-05-10T12:39:41;23.00;42.70
11132;DHT22;5620;53.570;9.718;2023-05-10T12:42:10;23.30;33.40
11132;DHT22;5620;53.570;9.718;2023-05-10T12:44:35;23.70;26.20
11132;DHT22;5620;53.570;9.718;2023-05-10T12:47:01;24.30;17.70
11132;DHT22;5620;53.570;9.718;2023-05-10T12:49:28;25.10;5.30
11132;DHT22;5620;53.570;9.718;2023-05-10T12:51:54;25.80;1.00
11132;DHT22;5620;53.570;9.718;2023-05-10T12:54:21;26.40;1.00
11132;DHT22;5620;53.570;9.718;2023-05-10T12:56:48;26.70;1.00
11132;DHT22;5620;53.570;9.718;2023-05-10T12:59:14;26.70;1.00
11132;DHT22;5620;53.570;9.718;2023-05-10T13:01:39;26.60;1.00
11132;DHT22;5620;53.570;9.718;2023-05-10T13:04:05;26.30;1.00
11132;DHT22;5620;53.570;9.718;2023-05-10T13:06:31;26.10;1.00
11132;DHT22;5620;53.570;9.718;2023-05-10T13:08:58;26.20;1.00
11132;DHT22;5620;53.570;9.718;2023-05-10T13:11:26;26.20;1.00
11132;DHT22;5620;53.570;9.718;2023-05-10T13:13:53;26.00;1.00
11132;DHT22;5620;53.570;9.718;2023-05-10T13:16:20;25.70;1.00
11132;DHT22;5620;53.570;9.718;2023-05-10T13:18:45;25.30;1.00
11132;DHT22;5620;53.570;9.718;2023-05-10T13:21:12;25.00;1.00
11132;DHT22;5620;53.570;9.718;2023-05-10T13:23:39;24.80;1.00
11132;DHT22;5620;53.570;9.718;2023-05-10T13:26:05;24.80;1.00
11132;DHT22;5620;53.570;9.718;2023-05-10T13:28:30;24.80;1.00
11132;DHT22;5620;53.570;9.718;2023-05-10T13:30:57;24.70;1.00
11132;DHT22;5620;53.570;9.718;2023-05-10T13:33:24;24.50;1.00
11132;DHT22;5620;53.570;9.718;2023-05-10T13:35:49;24.20;1.00
11132;DHT22;5620;53.570;9.718;2023-05-10T13:38:16;23.80;1.00
11132;DHT22;5620;53.570;9.718;2023-05-10T13:40:42;23.20;1.00
11132;DHT22;5620;53.570;9.718;2023-05-10T13:43:08;22.70;1.00
11132;DHT22;5620;53.570;9.718;2023-05-10T13:45:33;22.40;1.00
11132;DHT22;5620;53.570;9.718;2023-05-10T13:47:59;22.00;1.00
11132;DHT22;5620;53.570;9.718;2023-05-10T13:50:26;21.80;1.00
11132;DHT22;5620;53.570;9.718;2023-05-10T13:52:51;22.00;1.00
11132;DHT22;5620;53.570;9.718;2023-05-10T13:55:17;22.80;1.00
11132;DHT22;5620;53.570;9.718;2023-05-10T13:57:44;24.10;1.00
11132;DHT22;5620;53.570;9.718;2023-05-10T14:00:11;25.30;1.00
11132;DHT22;5620;53.570;9.718;2023-05-10T14:02:38;26.10;1.00
11132;DHT22;5620;53.570;9.718;2023-05-10T14:05:05;26.80;1.00
11132;DHT22;5620;53.570;9.718;2023-05-10T14:07:31;27.50;1.00
11132;DHT22;5620;53.570;9.718;2023-05-10T14:09:56;28.10;1.00
11132;DHT22;5620;53.570;9.718;2023-05-10T14:12:24;28.20;1.00
11132;DHT22;5620;53.570;9.718;2023-05-10T14:14:51;28.10;1.00
11132;DHT22;5620;53.570;9.718;2023-05-10T14:17:18;27.90;1.00
11132;DHT22;5620;53.570;9.718;2023-05-10T14:19:45;28.10;1.00
11132;DHT22;5620;53.570;9.718;2023-05-10T14:22:13;28.20;1.00
11132;DHT22;5620;53.570;9.718;2023-05-10T14:24:39;28.30;1.00
11132;DHT22;5620;53.570;9.718;2023-05-10T14:27:10;28.30;1.00
11132;DHT22;5620;53.570;9.718;2023-05-10T14:29:38;28.20;1.00
11132;DHT22;5620;53.570;9.718;2023-05-10T14:32:07;28.00;1.00
11132;DHT22;5620;53.570;9.718;2023-05-10T14:34:32;27.70;1.00
11132;DHT22;5620;53.570;9.718;2023-05-10T14:36:58;27.20;1.00
11132;DHT22;5620;53.570;9.718;2023-05-10T14:39:24;26.60;1.00
11132;DHT22;5620;53.570;9.718;2023-05-10T14:41:50;25.90;1.00
11132;DHT22;5620;53.570;9.718;2023-05-10T14:44:17;24.90;1.00
11132;DHT22;5620;53.570;9.718;2023-05-10T14:46:43;24.20;1.00
11132;DHT22;5620;53.570;9.718;2023-05-10T14:49:10;23.40;1.00
11132;DHT22;5620;53.570;9.718;2023-05-10T14:51:36;22.70;1.00
11132;DHT22;5620;53.570;9.718;2023-05-10T14:54:03;22.20;1.00
11132;DHT22;5620;53.570;9.718;2023-05-10T14:56:31;21.90;1.00
11132;DHT22;5620;53.570;9.718;2023-05-10T14:58:57;21.60;1.00
11132;DHT22;5620;53.570;9.718;2023-05-10T15:01:25;21.40;1.00
11132;DHT22;5620;53.570;9.718;2023-05-10T15:03:52;21.40;1.00
11132;DHT22;5620;53.570;9.718;2023-05-10T15:06:35;21.50;1.00
11132;DHT22;5620;53.570;9.718;2023-05-10T15:09:01;21.80;1.00
11132;DHT22;5620;53.570;9.718;2023-05-10T15:11:27;21.90;1.00
11132;DHT22;5620;53.570;9.718;2023-05-10T15:13:53;21.90;1.00
11132;DHT22;5620;53.570;9.718;2023-05-10T15:16:18;22.00;1.00
11132;DHT22;5620;53.570;9.718;2023-05-10T15:18:44;21.90;1.00
11132;DHT22;5620;53.570;9.718;2023-05-10T15:21:12;21.80;1.00
11132;DHT22;5620;53.570;9.718;2023-05-10T15:23:37;21.60;1.00
11132;DHT22;5620;53.570;9.718;2023-05-10T15:26:05;21.20;1.00
11132;DHT22;5620;53.570;9.718;2023-05-10T15:28:34;20.80;1.00
11132;DHT22;5620;53.570;9.718;2023-05-10T15:31:01;20.40;1.00
11132;DHT22;5620;53.570;9.718;2023-05-10T15:33:28;20.00;1.00
11132;DHT22;5620;53.570;9.718;2023-05-10T15:35:54;19.50;1.00
11132;DHT22;5620;53.570;9.718;2023-05-10T15:38:21;18.90;4.00
11132;DHT22;5620;53.570;9.718;2023-05-10T15:40:46;18.60;12.90
11132;DHT22;5620;53.570;9.718;2023-05-10T15:43:17;18.50;21.00
11132;DHT22;5620;53.570;9.718;2023-05-10T15:45:42;18.40;28.30
11132;DHT22;5620;53.570;9.718;2023-05-10T15:48:07;18.40;37.20
11132;DHT22;5620;53.570;9.718;2023-05-10T15:50:34;18.40;49.90
11132;DHT22;5620;53.570;9.718;2023-05-10T15:53:02;18.40;61.90
11132;DHT22;5620;53.570;9.718;2023-05-10T15:55:28;18.50;71.20
11132;DHT22;5620;53.570;9.718;2023-05-10T15:57:56;18.60;79.70
11132;DHT22;5620;53.570;9.718;2023-05-10T16:00:25;18.80;85.90
11132;DHT22;5620;53.570;9.718;2023-05-10T16:02:52;18.90;89.70
11132;DHT22;5620;53.570;9.718;2023-05-10T16:05:18;19.00;92.00
11132;DHT22;5620;53.570;9.718;2023-05-10T16:07:45;19.10;94.40
11132;DHT22;5620;53.570;9.718;2023-05-10T16:10:12;19.20;97.10
11132;DHT22;5620;53.570;9.718;2023-05-10T16:12:38;19.30;99.20
11132;DHT22;5620;53.570;9.718;2023-05-10T16:15:05;19.50;99.90
11132;DHT22;5620;53.570;9.718;2023-05-10T16:17:32;19.50;99.90
11132;DHT22;5620;53.570;9.718;2023-05-10T16:19:59;19.60;99.90
11132;DHT22;5620;53.570;9.718;2023-05-10T16:22:26;19.90;99.90
11132;DHT22;5620;53.570;9.718;2023-05-10T16:24:53;20.10;99.90
11132;DHT22;5620;53.570;9.718;2023-05-10T16:27:20;20.10;99.90
11132;DHT22;5620;53.570;9.718;2023-05-10T16:29:46;20.20;99.90
11132;DHT22;5620;53.570;9.718;2023-05-10T16:32:14;20.30;99.90
11132;DHT22;5620;53.570;9.718;2023-05-10T16:34:41;20.30;99.90
11132;DHT22;5620;53.570;9.718;2023-05-10T16:37:09;20.00;99.90